North Haven, Connecticut
Current Conditions -  °F | °C
As of 10:53 PM on Monday 20 Oct 2014 (Local Time) from KHVN Reporting Station
Clear Clear  
Wind Chill: 62°   Ceiling: Unl
Heat Index: 62°   Visibility: 10mi
Dew Point: 45°   Wind: 7mph
Humidity: 53%   Direction: 220°SW
Pressure: 29.99"   Gusts: NA
Location:  41.39°N, 72.86°W
Report Text: KHVN 210253Z AUTO 22006KT 10SM CLR 17/07 A2999 RMK AO2 SLP155 T01670072 50002
Loading
Personal Weather Stations






























Interactive Weather Map
Tropical Storm Tracking
New forecast layout! Learn more

10-Day Weather Forecast

Advertisements
Track Severe Weather on mobile